Time;durP1;ratioP1;P1;durP2;ratioP2;P2;SDS_P1;SDS_P2;PMS_P1;PMS_P2;Temp;Humidity;BMP_temperature;BMP_pressure;BME280_temperature;BME280_humidity;BME280_pressure;Samples;Min_cycle;Max_cycle;Signal;HPM_P1;HPM_P2
2023/06/17 00:00:07;;;;;;;;;;;16.70;99.90;;;;;;5020429;28;20483;-70
2023/06/17 00:02:34;;;;;;;12.02;6.47;;;16.70;99.90;;;;;;5029994;28;20019;-70
2023/06/17 00:05:03;;;;;;;9.55;7.07;;;16.60;99.90;;;;;;5023229;28;20041;-70
2023/06/17 00:07:29;;;;;;;10.90;6.25;;;16.60;99.90;;;;;;5023410;28;20055;-70
2023/06/17 00:09:55;;;;;;;10.43;6.53;;;16.60;99.90;;;;;;5023290;28;20048;-70
2023/06/17 00:12:22;;;;;;;13.73;6.78;;;16.60;99.90;;;;;;5032235;28;20052;-70
2023/06/17 00:14:48;;;;;;;8.45;6.13;;;16.60;99.90;;;;;;5038824;28;20615;-70
2023/06/17 00:17:14;;;;;;;13.70;6.72;;;16.60;99.90;;;;;;5025961;28;20047;-70
2023/06/17 00:19:40;;;;;;;10.48;6.30;;;16.60;99.90;;;;;;5034448;28;20047;-70
2023/06/17 00:22:08;;;;;;;10.10;6.63;;;16.60;99.90;;;;;;5030638;28;20036;-70
2023/06/17 00:24:36;;;;;;;11.18;6.07;;;16.60;99.90;;;;;;5041366;28;20037;-70
2023/06/17 00:27:03;;;;;;;9.85;6.20;;;16.60;99.90;;;;;;5031948;28;20046;-70
2023/06/17 00:29:28;;;;;;;;;;;16.60;99.90;;;;;;5024126;28;20118;-70
2023/06/17 00:31:54;;;;;;;11.25;6.22;;;16.50;99.90;;;;;;5026722;28;19920;-76
2023/06/17 00:34:20;;;;;;;15.95;6.43;;;16.50;99.90;;;;;;5009453;28;20452;-70
2023/06/17 00:36:46;;;;;;;11.82;6.95;;;16.50;99.90;;;;;;5025873;28;20052;-70
2023/06/17 00:39:13;;;;;;;11.32;6.53;;;16.60;99.90;;;;;;5028441;28;20037;-70
2023/06/17 00:41:39;;;;;;;14.23;6.85;;;16.60;99.90;;;;;;5017707;28;20155;-70
2023/06/17 00:44:04;;;;;;;13.00;6.88;;;16.60;99.90;;;;;;5042822;28;20638;-70
2023/06/17 00:46:43;;;;;;;13.73;6.72;;;16.60;99.90;;;;;;5030893;28;20057;-70
2023/06/17 00:49:10;;;;;;;11.02;6.95;;;16.60;99.90;;;;;;5022201;28;20048;-70
2023/06/17 00:51:37;;;;;;;13.85;7.75;;;16.60;99.90;;;;;;5027105;28;20053;-70
2023/06/17 00:54:03;;;;;;;16.92;7.70;;;16.60;99.90;;;;;;5035299;28;20588;-70
2023/06/17 00:56:31;;;;;;;12.73;7.45;;;16.60;99.90;;;;;;5026279;28;20175;-70
2023/06/17 00:58:57;;;;;;;12.82;7.35;;;16.60;99.90;;;;;;5025090;28;20052;-70
2023/06/17 01:01:26;;;;;;;13.10;7.57;;;16.60;99.90;;;;;;5030268;28;20467;-70
2023/06/17 01:03:55;;;;;;;16.70;7.38;;;16.60;99.90;;;;;;5048549;28;20406;-70
2023/06/17 01:06:33;;;;;;;12.07;7.03;;;16.60;99.90;;;;;;5050312;28;20084;-70
2023/06/17 01:09:06;;;;;;;11.48;6.95;;;16.50;99.90;;;;;;5041310;28;20448;-74
2023/06/17 01:11:33;;;;;;;17.25;7.35;;;16.50;99.90;;;;;;5039237;28;20063;-70
2023/06/17 01:14:01;;;;;;;12.30;6.50;;;16.50;99.90;;;;;;5025191;28;20498;-70
2023/06/17 01:16:29;;;;;;;12.40;6.50;;;16.50;99.90;;;;;;5036537;28;20132;-70
2023/06/17 01:18:55;;;;;;;11.88;6.93;;;16.50;99.90;;;;;;5025947;28;20067;-70
2023/06/17 01:21:22;;;;;;;14.77;7.45;;;16.50;99.90;;;;;;5035930;28;20090;-70
2023/06/17 01:23:53;;;;;;;;;;;16.60;99.90;;;;;;5029835;28;20056;-70
2023/06/17 01:26:21;;;;;;;12.48;6.68;;;16.60;99.90;;;;;;5029654;28;20276;-70
2023/06/17 01:28:48;;;;;;;14.30;8.50;;;16.50;99.90;;;;;;5038366;28;20047;-70
2023/06/17 01:31:18;;;;;;;14.40;7.28;;;16.60;99.90;;;;;;5029697;28;20056;-70
2023/06/17 01:33:46;;;;;;;14.73;7.28;;;16.60;99.90;;;;;;5029741;28;20047;-70
2023/06/17 01:36:34;;;;;;;11.10;7.25;;;16.60;99.90;;;;;;5037276;28;20052;-70
2023/06/17 01:39:05;;;;;;;14.18;7.72;;;16.60;99.90;;;;;;5052779;28;20128;-70
2023/06/17 01:41:42;;;;;;;12.32;7.95;;;16.70;99.90;;;;;;5055441;28;20365;-70
2023/06/17 01:44:10;;;;;;;17.17;7.88;;;16.70;99.90;;;;;;5011504;28;20040;-70
2023/06/17 01:46:37;;;;;;;16.55;8.70;;;16.60;99.90;;;;;;5030623;28;20088;-70
2023/06/17 01:49:03;;;;;;;12.55;7.60;;;16.60;99.90;;;;;;5018987;28;20404;-70
2023/06/17 01:51:32;;;;;;;12.88;8.93;;;16.60;99.90;;;;;;5030662;28;20060;-70
2023/06/17 01:53:58;;;;;;;12.25;8.25;;;16.60;99.90;;;;;;5019044;28;20045;-70
2023/06/17 01:56:24;;;;;;;12.52;8.45;;;16.60;99.90;;;;;;5017552;28;20569;-70
2023/06/17 01:58:49;;;;;;;18.23;8.90;;;16.60;99.90;;;;;;5011248;28;20490;-70
2023/06/17 02:01:15;;;;;;;20.00;10.10;;;16.70;99.90;;;;;;5026752;28;20562;-70
2023/06/17 02:03:42;;;;;;;19.27;10.00;;;16.60;99.90;;;;;;5045465;28;20034;-70
2023/06/17 02:06:07;;;;;;;15.68;9.05;;;16.60;99.90;;;;;;5031795;28;20418;-70
2023/06/17 02:08:34;;;;;;;15.93;8.70;;;16.60;99.90;;;;;;5046301;28;20559;-69
2023/06/17 02:11:01;;;;;;;12.65;9.15;;;16.60;99.90;;;;;;5012651;28;20044;-70
2023/06/17 02:13:26;;;;;;;16.75;8.82;;;16.60;99.90;;;;;;5044452;28;20454;-70
2023/06/17 02:15:52;;;;;;;14.65;8.70;;;16.50;99.90;;;;;;5028509;28;20037;-70
2023/06/17 02:18:18;;;;;;;18.67;9.75;;;16.60;99.90;;;;;;5035186;28;20080;-70
2023/06/17 02:20:45;;;;;;;13.77;8.63;;;16.60;99.90;;;;;;5032499;28;20041;-70
2023/06/17 02:23:11;;;;;;;15.43;9.60;;;16.60;99.90;;;;;;5030207;28;20033;-70
2023/06/17 02:25:39;;;;;;;15.73;10.10;;;16.60;99.90;;;;;;5036033;28;20486;-70
2023/06/17 02:28:06;;;;;;;18.67;9.38;;;16.60;99.90;;;;;;5031639;28;20063;-70
2023/06/17 02:30:32;;;;;;;21.35;10.43;;;16.60;99.90;;;;;;5024009;28;20049;-70
2023/06/17 02:32:58;;;;;;;14.73;9.40;;;16.60;99.90;;;;;;5043581;28;20052;-70
2023/06/17 02:35:23;;;;;;;22.90;11.38;;;16.60;99.90;;;;;;5024487;28;20033;-70
2023/06/17 02:37:49;;;;;;;25.65;10.57;;;16.60;99.90;;;;;;5015826;28;20040;-71
2023/06/17 02:40:15;;;;;;;17.08;9.40;;;16.60;99.90;;;;;;5035310;28;20190;-71
2023/06/17 02:42:41;;;;;;;22.45;10.35;;;16.60;99.90;;;;;;5004215;28;20129;-68
2023/06/17 02:45:07;;;;;;;18.90;10.00;;;16.50;99.90;;;;;;5035262;28;20079;-68
2023/06/17 02:47:33;;;;;;;15.90;10.18;;;16.50;99.90;;;;;;5020591;28;20046;-69
2023/06/17 02:49:59;;;;;;;14.60;10.00;;;16.50;99.90;;;;;;5025131;28;20115;-68
2023/06/17 02:52:24;;;;;;;19.45;10.82;;;16.40;99.90;;;;;;5035895;28;20469;-69
2023/06/17 02:54:50;;;;;;;19.73;10.38;;;16.40;99.90;;;;;;5023430;28;20128;-69
2023/06/17 02:57:16;;;;;;;17.58;10.90;;;16.40;99.90;;;;;;5024442;28;20045;-69
2023/06/17 02:59:42;;;;;;;;;;;16.40;99.90;;;;;;5029425;28;20052;-69
2023/06/17 03:02:08;;;;;;;17.20;9.60;;;16.40;99.90;;;;;;5025461;28;19965;-69
2023/06/17 03:04:35;;;;;;;19.58;9.55;;;16.40;99.90;;;;;;5022642;28;20448;-69
2023/06/17 03:07:03;;;;;;;19.50;11.10;;;16.40;99.90;;;;;;5007242;28;20119;-69
2023/06/17 03:09:28;;;;;;;19.45;10.65;;;16.30;99.90;;;;;;5050608;28;20043;-69
2023/06/17 03:11:54;;;;;;;19.52;10.50;;;16.40;99.90;;;;;;5020495;28;20451;-69
2023/06/17 03:14:20;;;;;;;18.58;11.40;;;16.40;99.90;;;;;;5042563;28;20037;-69
2023/06/17 03:16:46;;;;;;;;;;;16.40;99.90;;;;;;5023992;28;20045;-69
2023/06/17 03:19:13;;;;;;;19.33;11.77;;;16.30;99.90;;;;;;5023154;28;19928;-69
2023/06/17 03:21:40;;;;;;;19.35;12.05;;;16.30;99.90;;;;;;5025080;28;20124;-69
2023/06/17 03:24:07;;;;;;;20.80;12.02;;;16.30;99.90;;;;;;5026891;28;20044;-68
2023/06/17 03:26:33;;;;;;;21.02;12.32;;;16.30;99.90;;;;;;5031372;28;20041;-68
2023/06/17 03:28:58;;;;;;;20.80;11.75;;;16.30;99.90;;;;;;5030282;28;20040;-68
2023/06/17 03:31:24;;;;;;;17.48;11.00;;;16.20;99.90;;;;;;5031260;28;20388;-69
2023/06/17 03:33:51;;;;;;;20.02;11.82;;;16.30;99.90;;;;;;5011858;28;20458;-69
2023/06/17 03:36:18;;;;;;;19.40;11.88;;;16.30;99.90;;;;;;5023514;28;20554;-69
2023/06/17 03:38:45;;;;;;;18.90;11.48;;;16.30;99.90;;;;;;5031004;28;20167;-69
2023/06/17 03:41:11;;;;;;;20.77;11.82;;;16.30;99.90;;;;;;5026698;28;20500;-69
2023/06/17 03:43:37;;;;;;;;;;;16.30;99.90;;;;;;5048089;28;20260;-69
2023/06/17 03:46:02;;;;;;;16.63;10.65;;;16.30;99.90;;;;;;5028725;28;20156;-69
2023/06/17 03:48:28;;;;;;;19.20;11.60;;;16.20;99.90;;;;;;5025568;28;20443;-69
2023/06/17 03:50:53;;;;;;;18.85;11.55;;;16.20;99.90;;;;;;5052223;28;20461;-68
2023/06/17 03:53:19;;;;;;;17.42;10.43;;;16.20;99.90;;;;;;5030288;28;20098;-69
2023/06/17 03:55:46;;;;;;;16.48;10.88;;;16.20;99.90;;;;;;5022680;28;20068;-69
2023/06/17 03:58:14;;;;;;;19.05;11.52;;;16.20;99.90;;;;;;5016316;28;20102;-69
2023/06/17 04:00:41;;;;;;;19.50;10.82;;;16.20;99.90;;;;;;5036743;28;20047;-69
2023/06/17 04:03:06;;;;;;;;;;;16.30;99.90;;;;;;5023103;28;20458;-68
2023/06/17 04:05:33;;;;;;;17.67;11.57;;;16.30;99.90;;;;;;5039429;28;19917;-69
2023/06/17 04:07:59;;;;;;;;;;;16.30;99.90;;;;;;5037202;28;20040;-69
2023/06/17 04:10:25;;;;;;;19.23;11.63;;;16.30;99.90;;;;;;5040343;28;19916;-68
2023/06/17 04:12:51;;;;;;;19.75;12.80;;;16.30;99.90;;;;;;5035370;28;20056;-69
2023/06/17 04:15:17;;;;;;;18.52;11.23;;;16.30;99.90;;;;;;5040513;28;20140;-69
2023/06/17 04:17:43;;;;;;;18.00;11.98;;;16.30;99.90;;;;;;5043044;28;20078;-69
2023/06/17 04:20:12;;;;;;;18.73;11.43;;;16.30;99.90;;;;;;5021004;28;20037;-69
2023/06/17 04:22:42;;;;;;;14.98;10.60;;;16.30;99.90;;;;;;5024093;28;20037;-69
2023/06/17 04:25:09;;;;;;;17.95;11.25;;;16.30;99.90;;;;;;5023560;28;20159;-69
2023/06/17 04:27:36;;;;;;;15.90;10.90;;;16.30;99.90;;;;;;5027252;28;20047;-69
2023/06/17 04:30:03;;;;;;;17.65;11.90;;;16.40;99.90;;;;;;5040062;28;20052;-69
2023/06/17 04:32:29;;;;;;;19.45;11.57;;;16.40;99.90;;;;;;5021657;28;20045;-68
2023/06/17 04:34:55;;;;;;;17.80;11.00;;;16.50;99.90;;;;;;5020055;28;20098;-69
2023/06/17 04:37:20;;;;;;;20.90;11.95;;;16.50;99.90;;;;;;5032593;28;20032;-69
2023/06/17 04:39:48;;;;;;;18.67;10.93;;;16.50;99.90;;;;;;5041884;28;20044;-68
2023/06/17 04:42:14;;;;;;;16.15;9.02;;;16.50;99.90;;;;;;5012849;28;20131;-69
2023/06/17 04:44:40;;;;;;;21.88;11.32;;;16.50;99.90;;;;;;5043632;28;20159;-68
2023/06/17 04:47:07;;;;;;;16.42;9.77;;;16.50;99.90;;;;;;5022368;28;20151;-69
2023/06/17 04:49:38;;;;;;;16.60;9.77;;;16.50;99.90;;;;;;5015114;28;20061;-69
2023/06/17 04:52:05;;;;;;;14.10;9.60;;;16.50;99.90;;;;;;5042466;28;20045;-69
2023/06/17 04:54:31;;;;;;;21.08;10.68;;;16.50;99.90;;;;;;5047547;28;20120;-68
2023/06/17 04:56:57;;;;;;;15.80;8.85;;;16.60;99.90;;;;;;5026388;28;20182;-68
2023/06/17 04:59:23;;;;;;;16.65;9.45;;;16.60;99.90;;;;;;5026792;28;20072;-68
2023/06/17 05:01:48;;;;;;;17.92;9.57;;;16.60;99.90;;;;;;5021855;28;20040;-69
2023/06/17 05:04:14;;;;;;;15.52;8.80;;;16.50;99.90;;;;;;5052689;28;20041;-70
2023/06/17 05:06:40;;;;;;;12.55;8.40;;;16.60;99.90;;;;;;5027342;28;20178;-68
2023/06/17 05:09:05;;;;;;;14.70;8.88;;;16.60;99.90;;;;;;5017719;28;20044;-68
2023/06/17 05:11:31;;;;;;;13.45;8.60;;;16.60;99.90;;;;;;5021547;28;20055;-68
2023/06/17 05:13:56;;;;;;;12.95;8.63;;;16.60;99.90;;;;;;5021700;28;20642;-68
2023/06/17 05:16:24;;;;;;;13.43;8.65;;;16.60;99.90;;;;;;5028332;28;20120;-68
2023/06/17 05:18:50;;;;;;;16.75;8.93;;;16.70;99.90;;;;;;5041231;28;20532;-68
2023/06/17 05:21:23;;;;;;;16.98;7.93;;;16.70;99.90;;;;;;5039698;28;20046;-68
2023/06/17 05:23:50;;;;;;;14.65;8.75;;;16.70;99.90;;;;;;5022602;28;20063;-68
2023/06/17 05:26:16;;;;;;;14.73;8.52;;;16.70;99.90;;;;;;5050212;28;20037;-68
2023/06/17 05:28:41;;;;;;;11.77;7.65;;;16.70;99.90;;;;;;5028758;28;20037;-68
2023/06/17 05:31:09;;;;;;;13.63;8.10;;;16.70;99.90;;;;;;5023029;28;20048;-69
2023/06/17 05:33:34;;;;;;;13.00;8.27;;;16.70;99.90;;;;;;5000611;28;20395;-68
2023/06/17 05:36:00;;;;;;;13.63;8.77;;;16.70;99.90;;;;;;5047492;28;20033;-68
2023/06/17 05:38:30;;;;;;;11.90;7.40;;;16.70;99.90;;;;;;5042677;28;20057;-68
2023/06/17 05:40:56;;;;;;;11.70;7.85;;;16.80;99.90;;;;;;5047399;28;20066;-68
2023/06/17 05:43:25;;;;;;;17.83;8.38;;;16.70;99.90;;;;;;5026711;28;20116;-68
2023/06/17 05:45:51;;;;;;;19.60;8.60;;;16.70;99.90;;;;;;5045694;28;20037;-68
2023/06/17 05:48:16;;;;;;;14.07;7.55;;;16.80;99.90;;;;;;5046467;28;20508;-68
2023/06/17 05:50:42;;;;;;;14.30;8.23;;;16.80;99.90;;;;;;5031564;28;20052;-68
2023/06/17 05:53:07;;;;;;;18.13;8.05;;;16.80;99.90;;;;;;5025233;28;20479;-68
2023/06/17 05:55:33;;;;;;;12.77;8.93;;;16.90;99.90;;;;;;5045498;28;20041;-68
2023/06/17 05:57:59;;;;;;;13.02;8.00;;;16.90;99.90;;;;;;5022626;28;20064;-68
2023/06/17 06:00:24;;;;;;;11.77;7.45;;;16.90;99.90;;;;;;5047887;28;20475;-68
2023/06/17 06:02:50;;;;;;;17.60;8.75;;;17.00;99.90;;;;;;5029677;28;20033;-68
2023/06/17 06:05:16;;;;;;;12.00;8.43;;;17.00;99.90;;;;;;5032370;28;20056;-68
2023/06/17 06:07:43;;;;;;;18.17;9.52;;;17.10;99.90;;;;;;5053574;28;20044;-68
2023/06/17 06:10:10;;;;;;;16.60;8.70;;;17.10;99.90;;;;;;5013202;28;20044;-68
2023/06/17 06:12:36;;;;;;;13.20;7.38;;;17.10;99.90;;;;;;5027071;28;20045;-68
2023/06/17 06:15:03;;;;;;;16.90;8.50;;;17.10;99.90;;;;;;5021734;28;20080;-68
2023/06/17 06:17:30;;;;;;;14.85;8.82;;;17.20;99.90;;;;;;5015140;28;20041;-68
2023/06/17 06:19:56;;;;;;;13.82;8.23;;;17.20;99.90;;;;;;5038356;28;20044;-68
2023/06/17 06:22:22;;;;;;;14.23;9.27;;;17.20;99.90;;;;;;5021586;28;20301;-68
2023/06/17 06:24:48;;;;;;;16.55;10.05;;;17.20;99.90;;;;;;5031341;28;20037;-68
2023/06/17 06:27:13;;;;;;;15.80;9.38;;;17.20;99.90;;;;;;5053456;28;20053;-68
2023/06/17 06:29:39;;;;;;;15.80;9.32;;;17.20;99.90;;;;;;5023923;28;20410;-68
2023/06/17 06:32:05;;;;;;;15.68;9.43;;;17.20;99.90;;;;;;5027026;28;20518;-68
2023/06/17 06:34:31;;;;;;;;;;;17.30;99.90;;;;;;5024215;28;20454;-68
2023/06/17 06:36:58;;;;;;;17.30;9.27;;;17.30;99.90;;;;;;5036698;28;19975;-68
2023/06/17 06:39:24;;;;;;;19.35;9.27;;;17.30;99.90;;;;;;5012233;28;20041;-68
2023/06/17 06:41:50;;;;;;;18.20;8.85;;;17.30;99.90;;;;;;5025256;28;20304;-68
2023/06/17 06:44:16;;;;;;;13.43;9.32;;;17.40;99.90;;;;;;5051186;28;20532;-68
2023/06/17 06:46:42;;;;;;;13.02;7.82;;;17.40;99.90;;;;;;5025231;28;20339;-68
2023/06/17 06:49:08;;;;;;;14.88;8.55;;;17.50;99.90;;;;;;5040553;28;20139;-68
2023/06/17 06:51:34;;;;;;;15.52;8.15;;;17.50;99.90;;;;;;5035790;28;20049;-68
2023/06/17 06:54:00;;;;;;;14.05;8.32;;;17.60;99.90;;;;;;5048983;28;20572;-68
2023/06/17 06:56:26;;;;;;;12.02;7.22;;;17.60;99.90;;;;;;5032383;28;20128;-68
2023/06/17 06:58:52;;;;;;;14.48;8.20;;;17.70;99.90;;;;;;5030078;28;20425;-68
2023/06/17 07:01:18;;;;;;;14.25;7.55;;;17.70;99.90;;;;;;5034222;28;20435;-68
2023/06/17 07:03:44;;;;;;;13.55;7.15;;;17.70;99.90;;;;;;5028897;28;20132;-68
2023/06/17 07:06:10;;;;;;;13.25;7.70;;;17.80;99.90;;;;;;5023893;28;20095;-68
2023/06/17 07:08:35;;;;;;;14.25;7.28;;;17.80;99.90;;;;;;5025934;28;20080;-69
2023/06/17 07:11:01;;;;;;;14.27;7.75;;;17.90;99.90;;;;;;5027136;28;20519;-69
2023/06/17 07:13:27;;;;;;;11.75;8.02;;;17.90;99.90;;;;;;5044147;28;20055;-69
2023/06/17 07:15:53;;;;;;;15.75;7.47;;;17.90;99.90;;;;;;5040435;28;20029;-69
2023/06/17 07:18:19;;;;;;;12.90;6.72;;;18.00;99.90;;;;;;5028107;28;20041;-74
2023/06/17 07:20:44;;;;;;;10.63;6.90;;;18.00;99.90;;;;;;5030546;28;20454;-72
2023/06/17 07:23:10;;;;;;;12.88;7.38;;;18.00;99.90;;;;;;5012256;28;20083;-69
2023/06/17 07:25:36;;;;;;;13.98;7.40;;;18.10;99.90;;;;;;5045780;28;20033;-69
2023/06/17 07:28:02;;;;;;;;;;;18.10;99.90;;;;;;5050065;28;20486;-69
2023/06/17 07:30:29;;;;;;;14.65;7.65;;;18.10;99.90;;;;;;5047310;28;19928;-68
2023/06/17 07:32:55;;;;;;;14.85;8.32;;;18.10;99.90;;;;;;5030080;28;20094;-70
2023/06/17 07:35:21;;;;;;;12.82;7.82;;;18.10;99.90;;;;;;5000810;28;20475;-69
2023/06/17 07:37:49;;;;;;;13.52;7.05;;;18.20;99.90;;;;;;5023802;28;20183;-68
2023/06/17 07:40:15;;;;;;;12.50;6.95;;;18.20;99.90;;;;;;5023092;28;20046;-68
2023/06/17 07:42:43;;;;;;;12.95;7.45;;;18.30;99.90;;;;;;5007626;28;20033;-68
2023/06/17 07:45:10;;;;;;;10.93;6.70;;;18.30;99.90;;;;;;5029538;28;20131;-67
2023/06/17 07:47:36;;;;;;;12.05;6.85;;;18.40;99.90;;;;;;5017616;28;20164;-68
2023/06/17 07:50:04;;;;;;;14.57;7.30;;;18.40;99.90;;;;;;5023568;28;20391;-68
2023/06/17 07:52:31;;;;;;;9.50;6.60;;;18.40;99.90;;;;;;5015366;28;20046;-68
2023/06/17 07:54:57;;;;;;;11.52;7.03;;;18.50;99.90;;;;;;5025317;28;20045;-68
2023/06/17 07:57:23;;;;;;;13.90;7.15;;;18.50;99.90;;;;;;5019783;28;20095;-67
2023/06/17 07:59:49;;;;;;;15.20;6.65;;;18.60;99.90;;;;;;5026446;28;20450;-66
2023/06/17 08:02:14;;;;;;;13.07;6.75;;;18.60;99.90;;;;;;5034705;28;20412;-66
2023/06/17 08:04:42;;;;;;;11.10;7.30;;;18.70;99.90;;;;;;5026478;28;20549;-65
2023/06/17 08:07:08;;;;;;;14.43;7.20;;;18.80;99.90;;;;;;5041756;28;20127;-66
2023/06/17 08:09:34;;;;;;;13.43;7.28;;;18.90;99.90;;;;;;5058010;28;20120;-65
2023/06/17 08:11:59;;;;;;;15.43;7.10;;;18.90;99.90;;;;;;5045164;28;20252;-66
2023/06/17 08:14:25;;;;;;;11.73;6.80;;;19.00;99.90;;;;;;5011938;28;20048;-66
2023/06/17 08:16:50;;;;;;;13.07;6.40;;;19.10;99.90;;;;;;5022101;28;20088;-66
2023/06/17 08:19:16;;;;;;;15.10;7.60;;;19.20;99.90;;;;;;5039552;28;20120;-67
2023/06/17 08:21:44;;;;;;;15.55;6.90;;;19.30;99.90;;;;;;5030509;28;20072;-66
2023/06/17 08:24:24;;;;;;;13.02;6.70;;;19.40;99.90;;;;;;5042614;28;20400;-65
2023/06/17 08:26:50;;;;;;;12.05;6.40;;;19.40;99.90;;;;;;5014465;28;20049;-67
2023/06/17 08:29:17;;;;;;;11.68;6.95;;;19.50;99.90;;;;;;5019986;28;20424;-66
2023/06/17 08:31:43;;;;;;;13.10;6.97;;;19.60;99.90;;;;;;5036696;28;20403;-65
2023/06/17 08:34:10;;;;;;;10.57;6.47;;;19.60;99.90;;;;;;5031754;28;20120;-66
2023/06/17 08:36:40;;;;;;;16.65;6.88;;;19.70;99.90;;;;;;5024875;28;20099;-66
2023/06/17 08:39:06;;;;;;;13.25;6.32;;;19.80;99.90;;;;;;5025989;28;20041;-66
2023/06/17 08:41:40;;;;;;;10.90;7.00;;;20.00;99.90;;;;;;5032977;28;20040;-66
2023/06/17 08:44:08;;;;;;;15.15;6.90;;;20.10;99.90;;;;;;5005140;28;20048;-66
2023/06/17 08:46:34;;;;;;;9.82;6.43;;;20.10;99.90;;;;;;5027047;28;20113;-66
2023/06/17 08:49:02;;;;;;;10.45;6.38;;;20.20;99.90;;;;;;5045427;28;20102;-66
2023/06/17 08:51:28;;;;;;;11.20;6.82;;;20.20;99.90;;;;;;5035594;28;20444;-65
2023/06/17 08:53:55;;;;;;;12.40;6.43;;;20.30;99.90;;;;;;5018529;28;20174;-65
2023/06/17 08:56:20;;;;;;;11.60;6.97;;;20.30;99.90;;;;;;5052517;28;20181;-66
2023/06/17 08:58:47;;;;;;;9.98;5.53;;;20.40;99.90;;;;;;5021203;28;20477;-67
2023/06/17 09:01:14;;;;;;;10.55;6.35;;;20.50;99.90;;;;;;5045065;28;20402;-65
2023/06/17 09:03:43;;;;;;;12.10;6.97;;;20.60;99.90;;;;;;5026526;28;20044;-66
2023/06/17 09:06:15;;;;;;;11.88;5.88;;;20.70;99.90;;;;;;5037116;28;20033;-65
2023/06/17 09:08:42;;;;;;;10.18;5.38;;;20.80;99.90;;;;;;5041317;28;20041;-66
2023/06/17 09:11:08;;;;;;;11.35;6.65;;;20.90;99.90;;;;;;5049830;28;20467;-66
2023/06/17 09:13:33;;;;;;;;;;;21.10;99.90;;;;;;5041928;28;20064;-65
2023/06/17 09:16:00;;;;;;;12.32;7.43;;;21.10;99.90;;;;;;5040517;28;20374;-65
2023/06/17 09:18:26;;;;;;;14.80;7.20;;;21.20;99.90;;;;;;5020298;28;20037;-68
2023/06/17 09:20:55;;;;;;;;;;;21.20;99.90;;;;;;5049230;28;20423;-66
2023/06/17 09:23:24;;;;;;;13.32;6.97;;;21.20;99.90;;;;;;5041081;28;19921;-66
2023/06/17 09:26:01;;;;;;;12.25;6.95;;;21.30;99.90;;;;;;5040995;28;20428;-66
2023/06/17 09:28:26;;;;;;;16.63;6.95;;;21.50;99.90;;;;;;5044170;28;20098;-66
2023/06/17 09:30:56;;;;;;;13.70;8.30;;;21.60;99.90;;;;;;5047423;28;20479;-65
2023/06/17 09:33:26;;;;;;;12.10;6.75;;;21.60;99.90;;;;;;5046024;28;20120;-66
2023/06/17 09:36:04;;;;;;;11.52;6.88;;;21.80;99.90;;;;;;5029449;28;20041;-65
2023/06/17 09:38:33;;;;;;;12.80;6.95;;;21.90;99.90;;;;;;5045062;28;20128;-66
2023/06/17 09:40:59;;;;;;;12.50;6.45;;;22.00;99.90;;;;;;5026118;28;20101;-67
2023/06/17 09:43:26;;;;;;;10.75;6.80;;;22.10;99.90;;;;;;5046243;28;20040;-67
2023/06/17 09:45:59;;;;;;;11.38;6.65;;;22.10;99.90;;;;;;5043324;28;20047;-66
2023/06/17 09:48:37;;;;;;;11.35;7.45;;;22.10;99.90;;;;;;5043010;28;20136;-67
2023/06/17 09:51:05;;;;;;;12.77;6.72;;;22.10;99.90;;;;;;5051309;28;20544;-66
2023/06/17 09:53:31;;;;;;;12.13;6.68;;;22.10;99.90;;;;;;5048313;28;20045;-67
2023/06/17 09:55:58;;;;;;;14.98;6.40;;;22.20;99.90;;;;;;5015651;28;20057;-67
2023/06/17 09:58:30;;;;;;;12.93;6.40;;;22.20;99.90;;;;;;5026860;28;20041;-66
2023/06/17 10:01:04;;;;;;;10.05;5.95;;;22.20;99.90;;;;;;5027316;28;20061;-67
2023/06/17 10:03:34;;;;;;;11.98;5.78;;;22.30;99.90;;;;;;5046357;28;20060;-67
2023/06/17 10:06:03;;;;;;;12.75;6.30;;;22.40;99.90;;;;;;5046813;28;20048;-66
2023/06/17 10:08:34;;;;;;;11.75;6.97;;;22.50;99.90;;;;;;5048171;28;20041;-66
2023/06/17 10:11:00;;;;;;;7.65;5.50;;;22.60;99.90;;;;;;5051553;28;20129;-66
2023/06/17 10:13:27;;;;;;;;;;;22.70;99.90;;;;;;5054193;28;20043;-66
2023/06/17 10:15:55;;;;;;;;;;;22.80;99.90;;;;;;5011859;28;19916;-67
2023/06/17 10:18:23;;;;;;;10.25;6.75;;;22.90;99.90;;;;;;5045989;28;19932;-66
2023/06/17 10:20:50;;;;;;;10.88;7.00;;;23.00;99.90;;;;;;5040849;28;20410;-66
2023/06/17 10:23:19;;;;;;;13.85;6.53;;;23.10;99.90;;;;;;5047382;28;20052;-68
2023/06/17 10:25:45;;;;;;;12.68;6.20;;;23.20;99.90;;;;;;5027230;28;20487;-65
2023/06/17 10:28:13;;;;;;;;;;;23.30;99.90;;;;;;5028967;28;20135;-66
2023/06/17 10:30:43;;;;;;;12.77;6.57;;;23.40;99.90;;;;;;5047565;28;20024;-66
2023/06/17 10:33:11;;;;;;;12.45;7.72;;;23.30;99.90;;;;;;5027385;28;20049;-67
2023/06/17 10:35:41;;;;;;;10.98;6.30;;;23.30;99.90;;;;;;5052621;28;20045;-67
2023/06/17 10:38:27;;;;;;;10.27;6.68;;;23.20;99.90;;;;;;5031751;28;20053;-66
2023/06/17 10:40:52;;;;;;;9.27;6.13;;;23.30;99.90;;;;;;5023979;28;20048;-69
2023/06/17 10:43:19;;;;;;;8.30;5.18;;;23.40;99.90;;;;;;5027399;28;20373;-67
2023/06/17 10:45:54;;;;;;;10.98;5.70;;;23.60;99.90;;;;;;5027937;28;20041;-71
2023/06/17 10:48:24;;;;;;;10.10;5.53;;;23.70;99.90;;;;;;5029135;28;20473;-67
2023/06/17 10:50:59;;;;;;;11.50;5.78;;;23.90;99.90;;;;;;5028779;28;20045;-66
2023/06/17 10:53:49;;;;;;;8.52;5.18;;;23.90;99.90;;;;;;5064277;22;20049;-89
2023/06/17 10:56:50;;;;;;;9.98;5.38;;;24.00;99.90;;;;;;5038222;28;20045;-89
2023/06/17 10:59:42;;;;;;;9.25;5.47;;;24.10;99.90;;;;;;5045698;28;20049;-89
2023/06/17 11:05:43;;;;;;;8.43;5.47;;;24.30;99.90;;;;;;5035145;28;20132;-88
2023/06/17 11:08:09;;;;;;;8.50;5.28;;;24.40;99.90;;;;;;5033760;28;20061;-89
2023/06/17 11:10:57;;;;;;;9.68;5.43;;;24.40;99.90;;;;;;5034073;28;20030;-88
2023/06/17 11:13:50;;;;;;;8.80;5.13;;;24.50;99.90;;;;;;5053583;28;20048;-89
2023/06/17 11:16:32;;;;;;;7.67;4.83;;;24.70;99.90;;;;;;5002322;28;20076;-88
2023/06/17 11:19:45;;;;;;;14.90;6.05;;;24.80;99.90;;;;;;5048146;28;20054;-88
2023/06/17 11:22:14;;;;;;;18.45;9.20;;;25.00;99.90;;;;;;5028301;28;20065;-87
2023/06/17 11:24:49;;;;;;;11.90;5.57;;;25.10;99.90;;;;;;5049175;28;20124;-88
2023/06/17 11:27:15;;;;;;;6.75;4.50;;;25.20;99.90;;;;;;5025877;23;20053;-67
2023/06/17 11:29:44;;;;;;;7.30;4.32;;;25.20;99.90;;;;;;5041865;28;20546;-67
2023/06/17 11:32:10;;;;;;;9.57;5.05;;;25.30;99.90;;;;;;5044383;28;20368;-67
2023/06/17 11:34:36;;;;;;;7.60;4.40;;;25.40;99.90;;;;;;5021087;28;20036;-68
2023/06/17 11:37:06;;;;;;;8.20;4.60;;;25.40;99.90;;;;;;5025973;28;20046;-67
2023/06/17 11:39:31;;;;;;;7.90;4.85;;;25.40;99.90;;;;;;5020639;28;20426;-67
2023/06/17 11:42:01;;;;;;;7.10;4.53;;;25.40;99.90;;;;;;5009438;28;20037;-67
2023/06/17 11:44:34;;;;;;;7.93;5.20;;;25.50;99.90;;;;;;5021387;28;20049;-67
2023/06/17 11:47:08;;;;;;;8.00;4.63;;;25.60;99.90;;;;;;5008351;28;20045;-68
2023/06/17 11:49:35;;;;;;;10.32;5.00;;;25.60;99.90;;;;;;5015729;28;20049;-67
2023/06/17 11:52:08;;;;;;;8.18;5.15;;;25.60;99.90;;;;;;5005698;28;20069;-67
2023/06/17 11:54:35;;;;;;;8.07;5.60;;;25.60;99.90;;;;;;5002059;28;20060;-67
2023/06/17 11:57:02;;;;;;;9.65;5.53;;;25.60;99.90;;;;;;5004407;28;20070;-67
2023/06/17 11:59:30;;;;;;;8.57;4.85;;;25.60;99.90;;;;;;5003598;28;20511;-67
2023/06/17 12:01:58;;;;;;;6.50;4.40;;;25.70;99.80;;;;;;5022862;28;20418;-67
2023/06/17 12:04:28;;;;;;;12.15;5.38;;;25.80;99.60;;;;;;5004442;28;20192;-67
2023/06/17 12:06:53;;;;;;;11.85;4.85;;;25.80;98.70;;;;;;5025480;28;20388;-68
2023/06/17 12:09:21;;;;;;;9.18;4.70;;;25.80;98.40;;;;;;5010069;28;20103;-67
2023/06/17 12:11:46;;;;;;;7.78;4.32;;;25.80;98.00;;;;;;5028369;28;20049;-67
2023/06/17 12:14:12;;;;;;;7.45;4.75;;;25.80;97.80;;;;;;5008162;28;20462;-67
2023/06/17 12:16:40;;;;;;;7.05;4.20;;;25.90;97.60;;;;;;5002762;28;20037;-67
2023/06/17 12:19:23;;;;;;;8.15;4.63;;;25.90;97.70;;;;;;5004181;28;20128;-68
2023/06/17 12:21:50;;;;;;;6.60;4.40;;;26.10;97.10;;;;;;5025199;28;20037;-67
2023/06/17 12:24:16;;;;;;;7.53;4.55;;;26.30;97.60;;;;;;5020811;28;20495;-67
2023/06/17 12:26:43;;;;;;;8.93;4.18;;;26.40;97.10;;;;;;5002123;28;20277;-66
2023/06/17 12:29:12;;;;;;;6.65;4.35;;;26.50;96.70;;;;;;5023237;28;20692;-66
2023/06/17 12:31:37;;;;;;;6.78;4.60;;;26.60;96.70;;;;;;5008250;28;20076;-67
2023/06/17 12:34:03;;;;;;;9.55;4.53;;;26.70;96.10;;;;;;5020785;28;20069;-66
2023/06/17 12:36:31;;;;;;;8.23;4.60;;;26.70;95.80;;;;;;5001742;28;20480;-66
2023/06/17 12:38:57;;;;;;;8.57;5.40;;;26.80;95.80;;;;;;5026744;28;20048;-67
2023/06/17 12:41:22;;;;;;;7.38;5.03;;;26.90;95.50;;;;;;5024278;28;20041;-66
2023/06/17 12:43:48;;;;;;;8.05;4.60;;;26.90;95.10;;;;;;5028536;28;20495;-66
2023/06/17 12:46:14;;;;;;;6.15;3.75;;;26.90;95.00;;;;;;5026956;28;20203;-67